createdAt,value
2022-08-03T00:00:24.719Z,23.84
2022-08-03T00:06:03.625Z,23.77
2022-08-03T00:11:28.370Z,23.77
2022-08-03T00:16:59.816Z,23.67
2022-08-03T00:22:35.964Z,23.63
2022-08-03T00:28:07.665Z,23.63
2022-08-03T00:33:58.475Z,23.59
2022-08-03T00:39:11.131Z,23.38
2022-08-03T00:44:42.851Z,23.33
2022-08-03T00:50:14.803Z,23.27
2022-08-03T00:55:46.265Z,23.22
2022-08-03T01:01:18.065Z,23.16
2022-08-03T01:06:49.680Z,23.1
2022-08-03T01:12:21.443Z,23.06
2022-08-03T01:17:53.195Z,23.07
2022-08-03T01:23:29.247Z,22.97
2022-08-03T01:29:01.181Z,22.93
2022-08-03T01:34:32.705Z,22.91
2022-08-03T01:40:04.472Z,22.88
2022-08-03T01:45:36.251Z,22.78
2022-08-03T01:51:07.946Z,22.73
2022-08-03T01:56:39.608Z,22.67
2022-08-03T02:02:15.810Z,22.61
2022-08-03T02:07:43.245Z,22.6
2022-08-03T02:13:14.789Z,22.54
2022-08-03T02:18:46.452Z,22.49
2022-08-03T02:24:22.631Z,22.44
2022-08-03T02:29:54.359Z,22.4
2022-08-03T02:35:26.056Z,22.42
2022-08-03T02:40:57.806Z,22.34
2022-08-03T02:46:29.464Z,22.27
2022-08-03T02:52:01.201Z,22.23
2022-08-03T02:57:32.962Z,22.22
2022-08-03T03:03:04.685Z,22.14
2022-08-03T03:08:36.477Z,22.12
2022-08-03T03:14:08.657Z,21.95
2022-08-03T03:19:39.933Z,21.94
2022-08-03T03:25:17.954Z,21.86
2022-08-03T03:30:52.938Z,21.86
2022-08-03T03:36:21.443Z,21.84
2022-08-03T03:41:53.214Z,21.88
2022-08-03T03:47:27.400Z,21.84
2022-08-03T03:52:56.585Z,21.75
2022-08-03T03:58:28.299Z,21.71
2022-08-03T04:04:00.048Z,21.73
2022-08-03T04:09:31.857Z,21.75
2022-08-03T04:15:03.548Z,21.73
2022-08-03T04:20:35.213Z,21.73
2022-08-03T04:26:11.472Z,21.72
2022-08-03T04:31:43.032Z,21.69
2022-08-03T04:37:14.759Z,21.72
2022-08-03T04:42:46.475Z,21.7
2022-08-03T04:48:18.220Z,21.63
2022-08-03T04:53:49.982Z,21.66
2022-08-03T04:59:21.648Z,21.68
2022-08-03T05:04:53.346Z,21.78
2022-08-03T05:10:25.110Z,21.94
2022-08-03T05:15:56.925Z,22.2
2022-08-03T05:21:41.834Z,22.25
2022-08-03T05:27:04.689Z,22.41
2022-08-03T05:32:36.381Z,22.53
2022-08-03T05:38:08.121Z,22.72
2022-08-03T05:43:39.814Z,22.8
2022-08-03T05:49:11.602Z,23.04
2022-08-03T05:54:55.745Z,23.23
2022-08-03T06:00:15.001Z,23.32
2022-08-03T06:05:55.610Z,23.74
2022-08-03T06:11:18.459Z,23.98
2022-08-03T06:16:50.186Z,23.94
2022-08-03T06:22:22.119Z,24.08
2022-08-03T06:28:00.189Z,24.52
2022-08-03T06:33:48.662Z,24.62
2022-08-03T06:34:35.352Z,24.62
2022-08-03T06:39:03.474Z,25.11
2022-08-03T06:44:35.178Z,24.98
2022-08-03T06:50:13.075Z,25.53
2022-08-03T06:55:40.762Z,25.78
2022-08-03T07:01:10.514Z,26.02
2022-08-03T07:06:42.185Z,26.64
2022-08-03T07:12:13.867Z,26.44
2022-08-03T07:17:45.544Z,26.72
2022-08-03T07:23:19.182Z,27.0
2022-08-03T07:28:53.457Z,27.1
2022-08-03T07:34:25.063Z,26.99
2022-08-03T07:39:56.799Z,27.15
2022-08-03T07:45:28.566Z,27.38
2022-08-03T07:51:00.207Z,28.14
2022-08-03T07:56:31.962Z,28.51
2022-08-03T08:02:03.790Z,29.17
2022-08-03T08:07:35.435Z,28.47
2022-08-03T08:13:07.147Z,29.3
2022-08-03T08:18:38.950Z,29.42
2022-08-03T08:24:11.050Z,29.93
2022-08-03T08:29:47.743Z,30.2
2022-08-03T08:35:18.623Z,29.76
2022-08-03T08:40:50.191Z,30.78
2022-08-03T08:46:23.008Z,30.81
2022-08-03T08:51:59.726Z,30.61
2022-08-03T08:57:41.729Z,30.51
2022-08-03T09:02:57.121Z,30.89
2022-08-03T09:08:28.836Z,31.16
2022-08-03T09:14:00.539Z,31.7
2022-08-03T09:19:32.351Z,31.9
2022-08-03T09:25:23.144Z,31.95
2022-08-03T09:30:40.121Z,31.64
2022-08-03T09:36:11.897Z,31.71
2022-08-03T09:41:43.672Z,31.57
2022-08-03T09:47:15.373Z,32.16
2022-08-03T09:52:50.364Z,32.83
2022-08-03T09:58:18.756Z,32.86
2022-08-03T10:04:03.761Z,32.91
2022-08-03T10:09:22.648Z,33.02
2022-08-03T10:14:53.914Z,33.23
2022-08-03T10:20:25.621Z,32.92
2022-08-03T10:25:57.357Z,33.29
2022-08-03T10:31:37.496Z,33.57
2022-08-03T10:37:09.181Z,33.52
2022-08-03T10:42:40.889Z,33.88
2022-08-03T10:48:12.633Z,34.18
2022-08-03T10:53:47.759Z,34.31
2022-08-03T10:59:27.619Z,34.39
2022-08-03T11:04:47.790Z,33.97
2022-08-03T11:10:19.513Z,34.79
2022-08-03T11:15:51.236Z,34.49
2022-08-03T11:21:23.780Z,34.76
2022-08-03T11:26:54.692Z,35.07
2022-08-03T11:32:32.780Z,34.85
2022-08-03T11:38:05.401Z,34.75
2022-08-03T11:43:36.411Z,35.02
2022-08-03T11:49:10.637Z,35.34
2022-08-03T11:54:39.672Z,35.39
2022-08-03T12:00:11.821Z,35.66
2022-08-03T12:05:48.052Z,35.5
2022-08-03T12:11:14.909Z,35.25
2022-08-03T12:16:46.568Z,35.49
2022-08-03T12:22:18.381Z,35.54
2022-08-03T12:27:50.157Z,35.77
2022-08-03T12:33:28.129Z,35.79
2022-08-03T12:39:00.030Z,35.56
2022-08-03T12:44:31.629Z,36.14
2022-08-03T12:50:03.349Z,35.96
2022-08-03T12:55:56.450Z,35.77
2022-08-03T13:01:09.345Z,35.67
2022-08-03T13:06:38.510Z,35.49
2022-08-03T13:12:10.244Z,35.56
2022-08-03T13:17:42.019Z,35.62
2022-08-03T13:23:15.555Z,35.85
2022-08-03T13:28:45.435Z,35.65
2022-08-03T13:34:23.701Z,35.6
2022-08-03T13:39:58.554Z,35.75
2022-08-03T13:45:24.946Z,35.91
2022-08-03T13:50:56.643Z,35.51
2022-08-03T13:56:28.501Z,35.67
2022-08-03T14:02:00.139Z,35.63
2022-08-03T14:07:31.844Z,35.82
2022-08-03T14:13:03.561Z,35.85
2022-08-03T14:18:35.230Z,36.01
2022-08-03T14:24:07.369Z,35.89
2022-08-03T14:29:38.685Z,35.88
2022-08-03T14:35:16.836Z,36.05
2022-08-03T14:40:48.557Z,36.06
2022-08-03T14:46:20.326Z,35.96
2022-08-03T14:51:53.661Z,36.17
2022-08-03T14:57:24.365Z,35.97
2022-08-03T15:02:55.754Z,36.19
2022-08-03T15:08:27.139Z,36.11
2022-08-03T15:13:58.934Z,35.88
2022-08-03T15:19:59.853Z,35.8
2022-08-03T15:25:02.382Z,35.88
2022-08-03T15:30:34.106Z,36.16
2022-08-03T15:36:10.222Z,36.22
2022-08-03T15:41:41.990Z,36.2
2022-08-03T15:47:13.704Z,36.13
2022-08-03T15:52:45.422Z,35.89
2022-08-03T15:58:59.435Z,36.04
2022-08-03T16:03:49.013Z,36.05
2022-08-03T16:09:23.194Z,36.0
2022-08-03T16:14:53.304Z,36.07
2022-08-03T16:20:29.107Z,36.12
2022-08-03T16:25:55.917Z,36.09
2022-08-03T16:31:27.815Z,35.74
2022-08-03T16:37:16.678Z,35.66
2022-08-03T16:42:35.429Z,35.79
2022-08-03T16:48:07.419Z,35.73
2022-08-03T16:54:05.659Z,35.58
2022-08-03T16:59:13.084Z,35.43
2022-08-03T17:04:44.745Z,35.18
2022-08-03T17:10:16.309Z,35.19
2022-08-03T17:15:58.425Z,35.22
2022-08-03T17:21:19.699Z,34.89
2022-08-03T17:26:51.407Z,34.98
2022-08-03T17:32:23.355Z,34.81
2022-08-03T17:38:03.534Z,34.71
2022-08-03T17:44:08.103Z,34.7
2022-08-03T17:49:02.759Z,34.59
2022-08-03T17:54:34.417Z,34.69
2022-08-03T17:55:50.946Z,34.69
2022-08-03T18:00:06.176Z,34.59
2022-08-03T18:06:08.794Z,34.56
2022-08-03T18:11:09.946Z,34.34
2022-08-03T18:16:41.435Z,34.16
2022-08-03T18:22:13.013Z,33.94
2022-08-03T18:27:45.660Z,33.74
2022-08-03T18:34:16.107Z,33.49
2022-08-03T18:34:32.368Z,33.49
2022-08-03T18:38:54.690Z,33.25
2022-08-03T18:44:37.820Z,33.06
2022-08-03T18:49:58.076Z,32.84
2022-08-03T18:55:32.840Z,32.69
2022-08-03T19:01:01.684Z,32.58
2022-08-03T19:06:33.374Z,32.4
2022-08-03T19:12:11.653Z,32.22
2022-08-03T19:18:37.122Z,32.03
2022-08-03T19:23:08.539Z,31.96
2022-08-03T19:28:40.226Z,31.79
2022-08-03T19:34:12.002Z,31.56
2022-08-03T19:39:56.487Z,31.63
2022-08-03T19:45:19.903Z,31.64
2022-08-03T19:50:51.625Z,31.49
2022-08-03T19:56:23.247Z,31.37
2022-08-03T20:01:55.025Z,31.25
2022-08-03T20:07:26.724Z,31.13
2022-08-03T20:12:58.482Z,31.1
2022-08-03T20:18:30.199Z,31.19
2022-08-03T20:24:03.447Z,31.14
2022-08-03T20:29:42.886Z,31.12
2022-08-03T20:35:05.382Z,31.04
2022-08-03T20:40:41.489Z,30.91
2022-08-03T20:46:29.822Z,30.8
2022-08-03T20:51:50.760Z,30.82
2022-08-03T20:57:16.658Z,30.66
2022-08-03T21:02:48.453Z,30.62
2022-08-03T21:08:20.133Z,30.55
2022-08-03T21:13:06.387Z,32.03
2022-08-03T21:13:51.851Z,30.4
2022-08-03T21:19:23.562Z,30.31
2022-08-03T21:24:55.976Z,30.16
2022-08-03T21:30:27.010Z,30.05
2022-08-03T21:35:58.693Z,30.01
2022-08-03T21:41:36.958Z,29.98
2022-08-03T21:47:08.537Z,29.9
2022-08-03T21:52:40.554Z,29.77
2022-08-03T21:58:11.990Z,29.68
2022-08-03T22:03:52.841Z,29.57
2022-08-03T22:09:15.446Z,29.4
2022-08-03T22:14:47.126Z,29.19
2022-08-03T22:20:18.965Z,29.13
2022-08-03T22:25:50.587Z,29.02
2022-08-03T22:31:30.208Z,29.02
2022-08-03T22:36:54.075Z,28.72
2022-08-03T22:42:32.145Z,28.6
2022-08-03T22:48:04.119Z,28.52
2022-08-03T22:53:35.588Z,28.58
2022-08-03T22:59:38.770Z,28.68
2022-08-03T23:04:38.999Z,28.71
2022-08-03T23:10:10.786Z,28.53
2022-08-03T23:15:42.555Z,28.49
2022-08-03T23:21:15.234Z,28.17
2022-08-03T23:26:46.008Z,28.24
2022-08-03T23:32:17.678Z,28.35
2022-08-03T23:38:03.735Z,28.21
2022-08-03T23:43:36.775Z,28.3
2022-08-03T23:48:57.293Z,28.11
2022-08-03T23:54:29.022Z,28.01
